Pilar de Goias, Brazil
Current Conditions -  °F | °C
As of 2:00 PM on Tuesday 21 Oct 2014 (Local Time) from SBAN Reporting Station
Few Clouds Few Clouds  
Wind Chill: 88°   Ceiling: Unl
Heat Index: 88°   Visibility: 6mi
Dew Point: 54°   Wind: 12mph
Humidity: 31%   Direction: 110°ESE
Pressure: 30.03"   Gusts: NA
Location:  14.76°S, 49.58°W
Report Text: SBAN 211600Z 11010KT 9999 FEW035 31/12 Q1017
Loading
Personal Weather Stations






























Interactive Weather Map
Tropical Storm Tracking
New forecast layout! Learn more

10-Day Weather Forecast

Advertisements
Track Severe Weather on mobile